createdAt,value
2019-04-30T00:00:18.329Z,41.42
2019-04-30T00:03:06.591Z,41.50
2019-04-30T00:05:38.154Z,41.59
2019-04-30T00:08:11.180Z,41.65
2019-04-30T00:10:45.386Z,41.73
2019-04-30T00:13:20.952Z,41.80
2019-04-30T00:15:57.490Z,41.83
2019-04-30T00:18:30.716Z,41.92
2019-04-30T00:21:01.189Z,42.03
2019-04-30T00:23:35.940Z,42.08
2019-04-30T00:26:10.354Z,42.14
2019-04-30T00:28:46.354Z,42.22
2019-04-30T00:31:23.503Z,42.24
2019-04-30T00:33:52.642Z,42.27
2019-04-30T00:36:29.067Z,42.28
2019-04-30T00:38:59.636Z,42.34
2019-04-30T00:41:32.263Z,42.32
2019-04-30T00:44:05.400Z,42.37
2019-04-30T00:46:38.116Z,42.44
2019-04-30T00:49:18.559Z,42.49
2019-04-30T00:51:49.892Z,42.56
2019-04-30T00:54:27.990Z,42.60
2019-04-30T00:57:03.784Z,42.65
2019-04-30T00:59:31.726Z,42.71
2019-04-30T01:02:29.157Z,42.72
2019-04-30T01:05:05.320Z,42.74
2019-04-30T01:07:35.299Z,42.76
2019-04-30T01:10:08.713Z,42.79
2019-04-30T01:12:47.105Z,42.84
2019-04-30T01:15:15.734Z,42.90
2019-04-30T01:17:51.016Z,42.95
2019-04-30T01:20:31.359Z,42.99
2019-04-30T01:23:03.033Z,43.04
2019-04-30T01:25:33.698Z,43.11
2019-04-30T01:28:06.295Z,43.16
2019-04-30T01:30:39.423Z,43.23
2019-04-30T01:33:11.906Z,43.29
2019-04-30T01:35:44.955Z,43.33
2019-04-30T01:38:18.932Z,43.35
2019-04-30T01:40:51.884Z,43.41
2019-04-30T01:43:31.586Z,43.43
2019-04-30T01:46:01.741Z,43.51
2019-04-30T01:48:33.683Z,43.57
2019-04-30T01:51:08.841Z,43.62
2019-04-30T01:53:44.800Z,43.68
2019-04-30T01:56:28.932Z,43.73
2019-04-30T01:59:20.432Z,43.79
2019-04-30T02:01:53.355Z,43.84
2019-04-30T02:04:25.957Z,43.91
2019-04-30T02:06:59.230Z,43.94
2019-04-30T02:09:31.815Z,44.02
2019-04-30T02:12:05.664Z,44.05
2019-04-30T02:14:39.487Z,44.11
2019-04-30T02:17:12.092Z,44.16
2019-04-30T02:19:54.183Z,44.22
2019-04-30T02:22:19.127Z,44.27
2019-04-30T02:24:52.114Z,44.31
2019-04-30T02:27:24.582Z,44.35
2019-04-30T02:29:56.969Z,44.40
2019-04-30T02:32:30.547Z,44.43
2019-04-30T02:35:10.554Z,44.43
2019-04-30T02:38:01.727Z,44.42
2019-04-30T02:40:39.267Z,44.43
2019-04-30T02:43:14.006Z,44.46
2019-04-30T02:45:50.477Z,44.45
2019-04-30T02:48:29.263Z,44.48
2019-04-30T02:51:04.574Z,44.49
2019-04-30T02:54:24.709Z,44.54
2019-04-30T02:57:12.397Z,44.58
2019-04-30T03:00:02.630Z,44.62
2019-04-30T03:02:35.391Z,44.66
2019-04-30T03:05:10.204Z,44.70
2019-04-30T03:07:43.243Z,44.72
2019-04-30T03:10:16.023Z,44.74
2019-04-30T03:12:49.891Z,44.73
2019-04-30T03:15:23.132Z,44.76
2019-04-30T03:18:23.364Z,44.78
2019-04-30T03:21:09.626Z,44.83
2019-04-30T03:23:41.159Z,44.95
2019-04-30T03:26:16.070Z,45.02
2019-04-30T03:28:49.413Z,45.09
2019-04-30T03:31:22.863Z,45.17
2019-04-30T03:33:55.659Z,45.22
2019-04-30T03:36:32.181Z,45.26
2019-04-30T03:39:02.265Z,45.32
2019-04-30T03:41:35.207Z,45.40
2019-04-30T03:44:21.084Z,45.48
2019-04-30T03:46:42.201Z,45.54
2019-04-30T03:49:14.605Z,45.56
2019-04-30T03:51:49.697Z,45.53
2019-04-30T03:54:21.610Z,45.54
2019-04-30T03:56:57.052Z,45.57
2019-04-30T03:59:30.216Z,45.61
2019-04-30T04:02:13.157Z,45.62
2019-04-30T04:05:04.288Z,45.61
2019-04-30T04:08:00.412Z,45.59
2019-04-30T04:10:52.921Z,45.57
2019-04-30T04:13:25.766Z,45.59
2019-04-30T04:15:59.894Z,45.64
2019-04-30T04:18:32.479Z,45.66
2019-04-30T04:21:12.160Z,45.69
2019-04-30T04:23:39.909Z,45.72
2019-04-30T04:26:12.743Z,45.73
2019-04-30T04:28:45.360Z,45.77
2019-04-30T04:31:19.271Z,45.76
2019-04-30T04:33:52.771Z,45.82
2019-04-30T04:36:25.399Z,45.81
2019-04-30T04:39:00.191Z,45.74
2019-04-30T04:41:31.962Z,45.70
2019-04-30T04:44:04.496Z,45.66
2019-04-30T04:46:37.093Z,45.65
2019-04-30T04:49:09.642Z,45.65
2019-04-30T04:51:42.541Z,45.59
2019-04-30T04:54:15.481Z,45.57
2019-04-30T04:56:50.450Z,45.51
2019-04-30T04:59:21.998Z,45.47
2019-04-30T05:01:54.581Z,45.36
2019-04-30T05:04:29.746Z,45.19
2019-04-30T05:07:01.303Z,44.91
2019-04-30T05:09:33.935Z,44.59
2019-04-30T05:12:06.351Z,44.28
2019-04-30T05:14:39.024Z,43.98
2019-04-30T05:17:11.910Z,43.65
2019-04-30T05:19:44.511Z,43.36
2019-04-30T05:22:18.959Z,43.07
2019-04-30T05:24:51.914Z,42.84
2019-04-30T05:27:24.463Z,42.62
2019-04-30T05:29:57.020Z,42.38
2019-04-30T05:32:30.003Z,42.17
2019-04-30T05:35:02.646Z,41.98
2019-04-30T05:37:35.628Z,42.00
2019-04-30T05:40:09.255Z,41.99
2019-04-30T05:42:42.119Z,41.91
2019-04-30T05:45:16.367Z,41.79
2019-04-30T05:47:50.606Z,41.60
2019-04-30T05:50:23.621Z,41.52
2019-04-30T05:52:56.138Z,41.46
2019-04-30T05:55:29.443Z,41.38
2019-04-30T05:58:02.158Z,41.29
2019-04-30T06:00:34.814Z,41.21
2019-04-30T06:03:09.311Z,41.09
2019-04-30T06:05:42.010Z,41.05
2019-04-30T06:08:19.225Z,40.92
2019-04-30T06:11:05.787Z,40.73
2019-04-30T06:13:58.867Z,40.62
2019-04-30T06:16:31.545Z,40.47
2019-04-30T06:19:04.089Z,40.27
2019-04-30T06:21:36.613Z,40.12
2019-04-30T06:24:10.714Z,39.94
2019-04-30T06:26:43.658Z,39.82
2019-04-30T06:29:16.116Z,39.66
2019-04-30T06:31:48.743Z,39.49
2019-04-30T06:34:21.602Z,39.40
2019-04-30T06:36:56.907Z,39.24
2019-04-30T06:39:29.066Z,39.03
2019-04-30T06:42:06.445Z,38.92
2019-04-30T06:44:39.282Z,38.84
2019-04-30T06:47:11.139Z,38.69
2019-04-30T06:49:44.592Z,38.58
2019-04-30T06:52:20.821Z,38.52
2019-04-30T06:54:51.265Z,38.42
2019-04-30T06:57:23.791Z,38.32
2019-04-30T06:59:56.426Z,38.23
2019-04-30T07:02:30.899Z,38.06
2019-04-30T07:05:03.774Z,37.83
2019-04-30T07:07:41.180Z,37.63
2019-04-30T07:10:25.789Z,37.49
2019-04-30T07:13:18.800Z,37.40
2019-04-30T07:15:51.469Z,37.25
2019-04-30T07:18:24.417Z,37.14
2019-04-30T07:20:58.725Z,37.06
2019-04-30T07:23:31.430Z,36.94
2019-04-30T07:26:04.397Z,36.79
2019-04-30T07:28:44.749Z,36.64
2019-04-30T07:31:14.470Z,36.55
2019-04-30T07:33:45.342Z,36.50
2019-04-30T07:36:19.514Z,36.46
2019-04-30T07:38:56.383Z,36.36
2019-04-30T07:41:26.267Z,36.19
2019-04-30T07:43:59.357Z,35.88
2019-04-30T07:46:35.111Z,35.73
2019-04-30T07:49:06.281Z,35.58
2019-04-30T07:51:41.236Z,35.28
2019-04-30T07:54:12.832Z,35.23
2019-04-30T07:56:45.331Z,35.27
2019-04-30T07:59:19.981Z,35.29
2019-04-30T08:02:06.272Z,35.30
2019-04-30T08:04:47.928Z,35.41
2019-04-30T08:07:20.779Z,35.34
2019-04-30T08:09:53.531Z,35.53
2019-04-30T08:12:33.655Z,35.47
2019-04-30T08:15:00.250Z,35.59
2019-04-30T08:17:32.717Z,35.60
2019-04-30T08:20:05.211Z,35.73
2019-04-30T08:22:40.827Z,35.77
2019-04-30T08:25:11.828Z,35.77
2019-04-30T08:27:44.391Z,35.83
2019-04-30T08:30:25.533Z,35.97
2019-04-30T08:32:51.202Z,36.06
2019-04-30T08:35:23.946Z,36.09
2019-04-30T08:37:56.452Z,36.13
2019-04-30T08:40:29.751Z,36.09
2019-04-30T08:43:02.327Z,36.06
2019-04-30T08:45:34.941Z,36.02
2019-04-30T08:48:09.117Z,35.92
2019-04-30T08:50:41.733Z,35.90
2019-04-30T08:53:26.456Z,35.89
2019-04-30T08:55:50.159Z,35.80
2019-04-30T08:58:29.052Z,35.83
2019-04-30T09:01:01.961Z,35.86
2019-04-30T09:03:34.598Z,35.87
2019-04-30T09:06:15.026Z,35.75
2019-04-30T09:08:50.382Z,35.77
2019-04-30T09:11:30.148Z,35.91
2019-04-30T09:13:58.492Z,36.00
2019-04-30T09:16:31.095Z,36.12
2019-04-30T09:19:03.860Z,36.21
2019-04-30T09:21:38.572Z,36.29
2019-04-30T09:24:10.811Z,36.38
2019-04-30T09:26:43.666Z,36.44
2019-04-30T09:29:16.548Z,36.54
2019-04-30T09:31:49.412Z,36.55
2019-04-30T09:34:22.153Z,36.64
2019-04-30T09:36:54.942Z,36.74
2019-04-30T09:39:29.589Z,36.84
2019-04-30T09:42:02.283Z,36.79
2019-04-30T09:44:34.814Z,36.89
2019-04-30T09:47:09.503Z,36.95
2019-04-30T09:49:42.453Z,37.00
2019-04-30T09:52:15.031Z,37.06
2019-04-30T09:54:49.668Z,37.08
2019-04-30T09:57:21.851Z,37.09
2019-04-30T09:59:54.388Z,37.17
2019-04-30T10:02:29.060Z,37.28
2019-04-30T10:05:02.369Z,37.27
2019-04-30T10:07:35.073Z,37.29
2019-04-30T10:10:09.487Z,37.30
2019-04-30T10:12:42.620Z,37.34
2019-04-30T10:15:25.162Z,37.38
2019-04-30T10:17:58.489Z,37.47
2019-04-30T10:20:44.027Z,37.55
2019-04-30T10:23:16.480Z,37.55
2019-04-30T10:25:49.112Z,37.48
2019-04-30T10:28:21.478Z,37.48
2019-04-30T10:30:54.018Z,37.41
2019-04-30T10:33:28.558Z,37.37
2019-04-30T10:36:01.051Z,37.38
2019-04-30T10:38:33.594Z,37.41
2019-04-30T10:41:08.671Z,37.47
2019-04-30T10:43:41.060Z,37.55
2019-04-30T10:46:14.087Z,37.57
2019-04-30T10:48:50.060Z,37.63
2019-04-30T10:51:22.739Z,37.61
2019-04-30T10:53:59.029Z,37.53
2019-04-30T10:56:35.192Z,37.55
2019-04-30T10:59:08.260Z,37.51
2019-04-30T11:01:40.908Z,37.51
2019-04-30T11:04:14.916Z,37.52
2019-04-30T11:06:47.624Z,37.41
2019-04-30T11:09:20.655Z,37.40
2019-04-30T11:11:53.428Z,37.47
2019-04-30T11:14:26.069Z,37.52
2019-04-30T11:16:59.928Z,37.51
2019-04-30T11:19:33.336Z,37.47
2019-04-30T11:22:06.381Z,37.43
2019-04-30T11:24:54.095Z,37.43
2019-04-30T11:27:13.968Z,37.40
2019-04-30T11:29:46.864Z,37.34
2019-04-30T11:32:24.557Z,37.30
2019-04-30T11:34:57.160Z,37.26
2019-04-30T11:37:30.036Z,37.30
2019-04-30T11:40:02.572Z,37.33
2019-04-30T11:42:35.154Z,37.31
2019-04-30T11:45:08.918Z,37.44
2019-04-30T11:47:52.874Z,37.45
2019-04-30T11:50:18.417Z,37.45
2019-04-30T11:52:51.004Z,37.38
2019-04-30T11:55:23.627Z,37.24
2019-04-30T11:57:56.525Z,37.22
2019-04-30T12:00:34.565Z,37.30
2019-04-30T12:03:09.019Z,37.46
2019-04-30T12:05:41.894Z,37.58
2019-04-30T12:08:19.501Z,37.59
2019-04-30T12:11:02.130Z,37.63
2019-04-30T12:13:35.232Z,37.56
2019-04-30T12:16:08.793Z,37.58
2019-04-30T12:18:41.559Z,37.71
2019-04-30T12:21:14.474Z,37.73
2019-04-30T12:23:47.044Z,37.79
2019-04-30T12:26:20.264Z,37.82
2019-04-30T12:28:53.271Z,37.81
2019-04-30T12:31:25.863Z,37.83
2019-04-30T12:33:58.895Z,37.88
2019-04-30T12:36:31.773Z,37.91
2019-04-30T12:39:04.390Z,37.94
2019-04-30T12:41:40.381Z,37.94
2019-04-30T12:44:11.027Z,37.93
2019-04-30T12:46:43.727Z,37.96
2019-04-30T12:49:16.331Z,37.97
2019-04-30T12:51:58.760Z,37.86
2019-04-30T12:54:46.554Z,37.80
2019-04-30T12:57:26.195Z,37.79
2019-04-30T13:00:00.431Z,37.79
2019-04-30T13:02:33.308Z,37.81
2019-04-30T13:05:06.196Z,37.81
2019-04-30T13:07:40.235Z,37.83
2019-04-30T13:10:13.385Z,37.84
2019-04-30T13:12:46.673Z,37.92
2019-04-30T13:15:19.748Z,37.98
2019-04-30T13:17:52.412Z,37.99
2019-04-30T13:20:26.179Z,38.04
2019-04-30T13:22:58.926Z,38.07
2019-04-30T13:25:35.508Z,38.11
2019-04-30T13:28:12.919Z,38.11
2019-04-30T13:30:45.418Z,38.13
2019-04-30T13:33:41.480Z,38.15
2019-04-30T13:36:14.183Z,38.21
2019-04-30T13:39:11.080Z,38.25
2019-04-30T13:42:15.948Z,38.29
2019-04-30T13:44:43.124Z,38.33
2019-04-30T13:47:15.784Z,38.37
2019-04-30T13:49:49.499Z,38.36
2019-04-30T13:52:22.075Z,38.34
2019-04-30T13:54:55.044Z,38.33
2019-04-30T13:57:27.639Z,38.32
2019-04-30T14:00:00.216Z,38.29
2019-04-30T14:02:36.147Z,38.30
2019-04-30T14:05:15.297Z,38.31
2019-04-30T14:07:55.679Z,38.32
2019-04-30T14:10:29.436Z,38.32
2019-04-30T14:13:04.000Z,38.36
2019-04-30T14:15:37.354Z,38.42
2019-04-30T14:18:10.702Z,38.54
2019-04-30T14:20:43.707Z,38.49
2019-04-30T14:23:18.486Z,38.54
2019-04-30T14:25:56.712Z,38.55
2019-04-30T14:28:25.440Z,38.62
2019-04-30T14:30:57.954Z,38.69
2019-04-30T14:33:30.488Z,38.73
2019-04-30T14:36:04.693Z,38.78
2019-04-30T14:38:40.525Z,38.81
2019-04-30T14:41:12.261Z,38.80
2019-04-30T14:43:51.096Z,38.77
2019-04-30T14:46:34.777Z,38.78
2019-04-30T14:49:34.164Z,38.78
2019-04-30T14:52:09.195Z,38.78
2019-04-30T14:54:55.065Z,38.79
2019-04-30T14:57:51.091Z,38.79
2019-04-30T15:00:59.234Z,38.76
2019-04-30T15:03:32.135Z,38.79
2019-04-30T15:06:04.714Z,38.84
2019-04-30T15:08:38.957Z,38.91
2019-04-30T15:11:11.912Z,38.92
2019-04-30T15:13:44.540Z,38.97
2019-04-30T15:16:17.508Z,38.99
2019-04-30T15:18:50.466Z,38.98
2019-04-30T15:21:23.611Z,39.04
2019-04-30T15:24:09.460Z,39.06
2019-04-30T15:26:42.330Z,39.08
2019-04-30T15:29:16.248Z,39.14
2019-04-30T15:31:49.404Z,39.19
2019-04-30T15:34:21.813Z,39.21
2019-04-30T15:36:54.997Z,39.23
2019-04-30T15:39:39.319Z,39.27
2019-04-30T15:42:20.753Z,39.29
2019-04-30T15:44:53.098Z,39.31
2019-04-30T15:47:25.896Z,39.33
2019-04-30T15:49:59.603Z,39.34
2019-04-30T15:52:34.950Z,39.37
2019-04-30T15:55:09.216Z,39.34
2019-04-30T15:58:07.015Z,39.33
2019-04-30T16:00:39.855Z,39.32
2019-04-30T16:03:18.457Z,39.30
2019-04-30T16:05:51.968Z,39.31
2019-04-30T16:08:39.092Z,39.33
2019-04-30T16:11:22.155Z,39.35
2019-04-30T16:14:19.744Z,39.35
2019-04-30T16:17:06.245Z,39.33
2019-04-30T16:19:38.926Z,39.33
2019-04-30T16:22:11.609Z,39.33
2019-04-30T16:24:44.187Z,39.36
2019-04-30T16:27:19.025Z,39.38
2019-04-30T16:29:51.247Z,39.41
2019-04-30T16:32:24.705Z,39.44
2019-04-30T16:34:59.133Z,39.45
2019-04-30T16:37:31.950Z,39.43
2019-04-30T16:40:05.297Z,39.40
2019-04-30T16:42:38.967Z,39.37
2019-04-30T16:45:11.781Z,39.38
2019-04-30T16:47:44.166Z,39.39
2019-04-30T16:50:18.723Z,39.45
2019-04-30T16:52:51.163Z,39.50
2019-04-30T16:55:23.715Z,39.55
2019-04-30T16:58:00.570Z,39.63
2019-04-30T17:00:39.411Z,39.71
2019-04-30T17:03:19.622Z,39.78
2019-04-30T17:06:01.350Z,39.90
2019-04-30T17:08:55.339Z,39.98
2019-04-30T17:11:44.704Z,40.06
2019-04-30T17:14:18.195Z,40.11
2019-04-30T17:16:50.652Z,40.16
2019-04-30T17:19:23.240Z,40.21
2019-04-30T17:21:55.815Z,40.29
2019-04-30T17:24:30.124Z,40.34
2019-04-30T17:27:16.193Z,40.36
2019-04-30T17:29:37.104Z,40.46
2019-04-30T17:32:10.651Z,40.56
2019-04-30T17:34:43.105Z,40.68
2019-04-30T17:37:16.011Z,40.74
2019-04-30T17:39:50.954Z,40.80
2019-04-30T17:42:23.567Z,40.92
2019-04-30T17:44:59.421Z,41.03
2019-04-30T17:47:31.857Z,41.09
2019-04-30T17:50:04.488Z,41.16
2019-04-30T17:52:37.249Z,41.25
2019-04-30T17:55:10.250Z,41.30
2019-04-30T17:57:43.031Z,41.34
2019-04-30T18:00:22.051Z,41.37
2019-04-30T18:02:51.384Z,41.39
2019-04-30T18:05:23.834Z,41.41
2019-04-30T18:07:56.555Z,41.46
2019-04-30T18:10:29.191Z,41.49
2019-04-30T18:13:01.816Z,41.49
2019-04-30T18:15:34.272Z,41.51
2019-04-30T18:18:32.759Z,41.58
2019-04-30T18:21:16.204Z,41.61
2019-04-30T18:24:10.008Z,41.66
2019-04-30T18:26:49.522Z,41.72
2019-04-30T18:29:22.041Z,41.79
2019-04-30T18:31:54.878Z,41.86
2019-04-30T18:34:29.154Z,41.87
2019-04-30T18:37:01.430Z,41.91
2019-04-30T18:39:34.142Z,41.95
2019-04-30T18:42:06.779Z,41.95
2019-04-30T18:44:39.320Z,41.99
2019-04-30T18:47:11.712Z,42.03
2019-04-30T18:49:44.717Z,42.07
2019-04-30T18:52:18.830Z,42.08
2019-04-30T18:54:51.687Z,42.11
2019-04-30T18:57:24.095Z,42.17
2019-04-30T18:59:56.643Z,42.16
2019-04-30T19:02:29.148Z,42.18
2019-04-30T19:05:01.645Z,42.20
2019-04-30T19:07:39.752Z,42.21
2019-04-30T19:10:22.468Z,42.19
2019-04-30T19:13:04.794Z,42.20
2019-04-30T19:16:17.887Z,42.25
2019-04-30T19:18:40.193Z,42.25
2019-04-30T19:21:15.088Z,42.28
2019-04-30T19:23:48.735Z,42.31
2019-04-30T19:26:22.739Z,42.38
2019-04-30T19:28:56.583Z,42.44
2019-04-30T19:31:29.860Z,42.50
2019-04-30T19:34:02.965Z,42.56
2019-04-30T19:36:37.676Z,42.61
2019-04-30T19:39:12.141Z,42.64
2019-04-30T19:41:45.231Z,42.71
2019-04-30T19:44:22.948Z,42.73
2019-04-30T19:46:58.578Z,42.76
2019-04-30T19:49:31.606Z,42.83
2019-04-30T19:52:08.469Z,42.87
2019-04-30T19:54:39.895Z,42.91
2019-04-30T19:57:12.629Z,42.91
2019-04-30T19:59:45.462Z,42.99
2019-04-30T20:02:19.123Z,43.03
2019-04-30T20:04:52.308Z,43.08
2019-04-30T20:07:24.821Z,43.12
2019-04-30T20:10:03.541Z,43.16
2019-04-30T20:12:31.681Z,43.18
2019-04-30T20:15:16.413Z,43.18
2019-04-30T20:17:39.952Z,43.19
2019-04-30T20:20:13.377Z,43.24
2019-04-30T20:22:46.537Z,43.29
2019-04-30T20:25:19.115Z,43.30
2019-04-30T20:27:52.259Z,43.33
2019-04-30T20:30:24.687Z,43.36
2019-04-30T20:32:59.407Z,43.40
2019-04-30T20:35:32.066Z,43.42
2019-04-30T20:38:21.803Z,43.48
2019-04-30T20:41:00.252Z,43.51
2019-04-30T20:43:28.680Z,43.55
2019-04-30T20:46:01.621Z,43.59
2019-04-30T20:48:34.139Z,43.61
2019-04-30T20:51:07.111Z,43.68
2019-04-30T20:53:41.069Z,43.73
2019-04-30T20:56:13.570Z,43.79
2019-04-30T20:58:57.181Z,43.81
2019-04-30T21:01:21.013Z,43.84
2019-04-30T21:03:54.173Z,43.85
2019-04-30T21:06:26.765Z,43.84
2019-04-30T21:08:59.549Z,43.84
2019-04-30T21:11:33.179Z,43.88
2019-04-30T21:14:06.134Z,43.91
2019-04-30T21:16:38.646Z,43.91
2019-04-30T21:19:11.714Z,43.94
2019-04-30T21:21:44.214Z,43.98
2019-04-30T21:24:17.476Z,43.98
2019-04-30T21:26:50.316Z,44.02
2019-04-30T21:29:23.108Z,44.02
2019-04-30T21:32:08.800Z,44.06
2019-04-30T21:34:54.559Z,44.12
2019-04-30T21:37:30.092Z,44.17
2019-04-30T21:40:02.684Z,44.24
2019-04-30T21:42:35.276Z,44.27
2019-04-30T21:45:08.536Z,44.32
2019-04-30T21:47:40.999Z,44.37
2019-04-30T21:50:14.747Z,44.39
2019-04-30T21:52:49.482Z,44.46
2019-04-30T21:55:21.703Z,44.51
2019-04-30T21:57:54.161Z,44.58
2019-04-30T22:00:46.225Z,44.62
2019-04-30T22:03:19.701Z,44.67
2019-04-30T22:05:53.231Z,44.70
2019-04-30T22:08:26.294Z,44.72
2019-04-30T22:11:00.260Z,44.80
2019-04-30T22:13:32.794Z,44.83
2019-04-30T22:16:05.248Z,44.92
2019-04-30T22:18:37.693Z,44.97
2019-04-30T22:21:10.233Z,45.06
2019-04-30T22:23:42.701Z,45.14
2019-04-30T22:26:15.190Z,45.22
2019-04-30T22:28:49.414Z,45.30
2019-04-30T22:31:21.768Z,45.40
2019-04-30T22:33:54.142Z,45.47
2019-04-30T22:36:33.933Z,45.51
2019-04-30T22:39:30.025Z,45.56
2019-04-30T22:42:39.935Z,45.63
2019-04-30T22:45:35.245Z,45.74
2019-04-30T22:48:08.865Z,45.82
2019-04-30T22:50:41.542Z,45.90
2019-04-30T22:53:14.361Z,45.95
2019-04-30T22:55:46.858Z,46.04
2019-04-30T22:58:19.484Z,46.14
2019-04-30T23:00:53.491Z,46.16
2019-04-30T23:03:30.863Z,46.20
2019-04-30T23:06:04.114Z,46.27
2019-04-30T23:08:36.645Z,46.31
2019-04-30T23:11:09.821Z,46.36
2019-04-30T23:13:42.453Z,46.43
2019-04-30T23:16:16.120Z,46.46
2019-04-30T23:18:48.708Z,46.49
2019-04-30T23:21:21.313Z,46.54
2019-04-30T23:23:55.366Z,46.51
2019-04-30T23:26:27.753Z,46.57
2019-04-30T23:29:00.626Z,46.59
2019-04-30T23:31:33.367Z,46.60
2019-04-30T23:34:17.410Z,46.60
2019-04-30T23:36:40.429Z,46.60
2019-04-30T23:39:13.781Z,46.61
2019-04-30T23:41:47.054Z,46.61
2019-04-30T23:44:19.592Z,46.61
2019-04-30T23:46:52.496Z,46.62
2019-04-30T23:49:24.964Z,46.63
2019-04-30T23:51:57.823Z,46.65
2019-04-30T23:54:30.279Z,46.65
2019-04-30T23:57:02.719Z,46.66
2019-04-30T23:59:35.241Z,46.67
